Latest Weather Observations for Kuitpo

IDS60901

Issued at 6:21 pm CST Monday 1 June 2020 (issued every 10 minutes, with the page automatically refreshed every 10 minutes)

About weather observations | Map of Adelaide area stations | Latest observations for Adelaide area | Other Formats
Station Details ID: 023887 Name: KUITPO FOREST RESERVE Lat: -35.17 Lon: 138.68 Height: 365.0 m
Data from the previous 72 hours. | See also: Recent months at Kuitpo
Date/Time
CST
Temp
°C
App
Temp
°C
Dew
Point
°C
Rel
Hum
%
Delta-T
°C
Wind Press
QNH
hPa
Press
MSL
hPa
Rain since
9am
mm
Dir  Spd
km/h
Gust
km/h
Spd
kts
Gust
kts
01/06:00pm 7.8 4.9 6.3 90 0.7 SW 11 17 6 9 1019.3 1019.5 2.0
01/05:30pm 8.4 4.5 6.9 90 0.7 WSW 17 26 9 14 1018.9 1019.2 2.0
01/05:00pm 8.8 5.5 6.4 85 1.1 WSW 13 20 7 11 1018.5 1018.7 1.8
01/04:30pm 9.2 5.2 6.5 83 1.3 WSW 17 32 9 17 1018.2 1018.4 1.8
01/04:00pm 9.3 4.7 6.4 82 1.4 SW 20 35 11 19 1018.0 1018.2 1.8
01/03:30pm 8.8 4.4 7.6 92 0.6 SW 20 30 11 16 1017.9 1018.1 1.8
01/03:00pm 9.6 4.3 6.7 82 1.4 WSW 24 41 13 22 1017.4 1017.6 1.8
01/02:30pm 9.2 3.9 6.8 85 1.1 WSW 24 37 13 20 1017.3 1017.5 1.6
01/02:00pm 9.3 4.9 7.6 89 0.8 WSW 20 37 11 20 1017.3 1017.5 1.6
01/01:30pm 9.4 4.6 7.5 88 0.9 SW 22 32 12 17 1016.9 1017.1 1.6
01/01:00pm 9.3 4.1 7.3 87 1.0 WSW 24 43 13 23 1016.8 1017.0 0.8
01/12:30pm 9.6 5.2 7.4 86 1.1 WSW 20 35 11 19 1016.9 1017.1 0.6
01/12:00pm 8.6 3.4 7.1 90 0.7 WSW 24 37 13 20 1017.0 1017.2 0.6
01/11:30am 9.0 4.7 7.9 93 0.5 SW 20 32 11 17 1016.9 1017.1 0.6
01/11:00am 8.5 3.2 7.0 90 0.7 WSW 24 39 13 21 1016.8 1017.0 0.6
01/10:30am 9.2 4.3 7.0 86 1.1 WSW 22 37 12 20 1016.6 1016.8 0.0
01/10:00am 8.6 4.0 6.7 88 0.9 SW 20 32 11 17 1016.3 1016.4 0.0
01/09:30am 8.0 3.4 6.6 91 0.7 SW 20 32 11 17 1015.9 1016.1 0.0
01/09:00am 7.6 3.4 5.9 89 0.8 SW 17 30 9 16 1015.5 1015.3 35.2
01/08:30am 6.5 1.7 5.5 93 0.5 WSW 20 35 11 19 1015.0 1014.8 35.2
01/08:00am 6.4 0.7 5.0 91 0.6 WSW 24 39 13 21 1014.7 1014.5 35.2
01/07:30am 6.0 0.6 4.3 89 0.7 SW 22 37 12 20 1014.1 1013.8 35.2
01/07:00am 5.7 0.6 4.2 90 0.7 SW 20 30 11 16 1013.6 1013.3 35.2
01/06:30am 6.0 0.8 3.8 86 1.0 SW 20 35 11 19 1012.6 1012.4 35.0
01/06:00am 5.9 0.9 4.4 90 0.7 SW 20 35 11 19 1012.2 1012.0 34.8
01/05:30am 5.7 0.3 4.3 91 0.6 SW 22 35 12 19 1011.9 1011.7 34.8
01/05:00am 5.5 0.7 4.6 94 0.4 SW 19 28 10 15 1011.6 1011.3 34.8
01/04:30am 5.7 0.7 4.5 92 0.5 WSW 20 35 11 19 1011.4 1011.1 34.8
01/04:00am 5.8 0.8 4.4 91 0.6 WSW 20 32 11 17 1011.2 1010.9 34.8
01/03:30am 6.2 1.0 5.3 94 0.4 WSW 22 35 12 19 1010.8 1010.5 34.8
01/03:00am 6.1 1.2 5.1 93 0.4 WSW 20 41 11 22 1010.6 1010.3 34.8
01/02:30am 6.2 0.4 4.5 89 0.8 SW 24 41 13 22 1009.9 1009.7 34.8
01/02:13am 6.7 0.2 4.9 88 0.8 WSW 28 59 15 32 1009.4 1009.1 34.8
01/02:00am 6.7 1.5 5.3 91 0.6 WSW 22 39 12 21 1009.4 1009.1 34.6
01/01:30am 6.5 0.1 5.3 92 0.5 SW 28 57 15 31 1008.9 1008.6 34.6
01/01:00am 7.1 1.5 5.4 89 0.8 SW 24 52 13 28 1008.7 1008.4 33.8
01/12:33am 7.5 1.2 5.5 87 0.9 SW 28 46 15 25 1008.4 1008.1 33.8
01/12:30am 7.6 0.8 5.2 85 1.1 SW 30 46 16 25 1008.4 1008.1 33.8
01/12:00am 8.4 0.4 5.9 84 1.2 WSW 37 59 20 32 1007.6 1007.3 33.8
 
Date/Time
CST
Temp
°C
App
Temp
°C
Dew
Point
°C
Rel
Hum
%
Delta-T
°C
Wind Press
QNH
hPa
Press
MSL
hPa
Rain since
9am
mm
Dir  Spd
km/h
Gust
km/h
Spd
kts
Gust
kts
31/11:30pm 8.9 2.6 7.4 90 0.7 WSW 30 50 16 27 1006.9 1006.6 33.6
31/11:00pm 8.9 2.9 8.6 98 0.1 WSW 30 50 16 27 1006.5 1006.2 33.6
31/10:30pm 9.6 3.3 9.6 100 0.0 WSW 33 56 18 30 1006.1 1005.8 33.4
31/10:24pm 9.9 3.8 9.9 100 0.0 W 32 54 17 29 1006.1 1005.8 33.0
31/10:21pm 9.8 4.1 9.8 100 0.0 W 30 54 16 29 1005.9 1005.6 31.2
31/10:00pm 10.5 4.0 10.5 100 0.0 WNW 35 56 19 30 1005.2 1004.9 22.4
31/09:30pm 10.4 2.8 10.4 100 0.0 WNW 41 72 22 39 1006.0 1005.7 16.6
31/09:00pm 10.5 4.0 10.5 100 0.0 NW 35 61 19 33 1006.2 1005.9 12.6
31/08:47pm 10.4 4.5 10.4 100 0.0 NW 32 72 17 39 1006.0 1005.7 10.8
31/08:30pm 10.3 4.2 10.3 100 0.0 NW 33 54 18 29 1006.3 1006.0 8.0
31/08:00pm 10.4 3.9 10.4 100 0.0 NW 35 57 19 31 1006.7 1006.4 6.6
31/07:30pm 10.4 4.3 10.4 100 0.0 NW 33 57 18 31 1007.0 1006.7 6.6
31/07:00pm 10.4 3.9 10.4 100 0.0 NW 35 63 19 34 1007.6 1007.3 5.4
31/06:30pm 10.0 4.3 9.9 99 0.1 NW 30 50 16 27 1007.8 1007.5 3.6
31/06:15pm 10.0 4.3 9.7 98 0.2 NW 30 54 16 29 1007.9 1007.6 3.2
31/06:00pm 10.1 5.5 9.6 97 0.3 NW 24 37 13 20 1008.0 1007.7 2.6
31/05:30pm 10.4 5.6 9.0 91 0.7 NW 24 43 13 23 1008.3 1008.0 1.6
31/05:00pm 10.6 5.7 8.4 86 1.1 NW 24 41 13 22 1008.5 1008.2 1.4
31/04:30pm 10.5 6.0 8.4 87 1.0 NW 22 41 12 22 1008.9 1008.6 1.4
31/04:00pm 10.7 5.4 8.5 86 1.1 NW 26 41 14 22 1008.9 1008.6 1.4
31/03:30pm 10.7 6.9 9.8 94 0.5 NW 20 28 11 15 1009.2 1008.9 1.4
31/03:00pm 9.9 6.0 9.3 96 0.3 NW 20 35 11 19 1009.6 1009.4 1.4
31/02:30pm 10.1 5.8 9.2 94 0.5 NW 22 35 12 19 1010.0 1009.8 1.4
31/02:00pm 10.3 5.8 8.6 89 0.9 NW 22 39 12 21 1010.3 1010.1 1.2
31/01:30pm 10.7 6.0 7.9 83 1.4 NW 22 37 12 20 1010.7 1010.4 1.2
31/01:00pm 11.0 6.8 8.1 82 1.4 NW 20 35 11 19 1011.2 1010.9 1.2
31/12:30pm 10.5 6.1 9.1 91 0.7 NW 22 35 12 19 1011.7 1011.4 1.2
31/12:00pm 10.0 6.6 9.1 94 0.5 NW 17 26 9 14 1012.3 1012.1 1.2
31/11:30am 9.6 5.5 8.7 94 0.4 WNW 20 33 11 18 1012.7 1012.5 1.2
31/11:00am 10.6 6.4 8.2 85 1.2 WNW 20 33 11 18 1012.8 1012.6 0.0
31/10:30am 10.9 6.7 8.1 83 1.4 WNW 20 32 11 17 1013.1 1012.9 0.0
31/10:00am 11.0 6.8 8.4 84 1.3 NW 20 35 11 19 1013.1 1012.9 0.0
31/09:30am 10.6 6.5 8.5 87 1.1 WNW 20 30 11 16 1013.5 1013.2 0.0
31/09:00am 10.3 6.8 8.6 89 0.9 WNW 17 30 9 16 1013.4 1013.1 10.0
31/08:30am 9.5 6.0 8.6 94 0.4 WNW 17 26 9 14 1013.0 1012.8 10.0
31/08:00am 8.9 5.2 7.8 93 0.5 WNW 17 28 9 15 1012.9 1012.7 10.0
31/07:30am 9.1 6.1 9.1 100 0.0 WNW 15 22 8 12 1012.6 1012.4 10.0
31/07:00am 9.3 5.9 9.3 100 0.0 WNW 17 28 9 15 1012.6 1012.4 10.0
31/06:30am 9.1 5.7 9.1 100 0.0 NW 17 24 9 13 1012.3 1012.1 10.0
31/06:00am 8.9 5.8 8.9 100 0.0 NW 15 26 8 14 1012.3 1012.1 10.0
31/05:30am 9.1 5.7 9.1 100 0.0 NW 17 28 9 15 1012.2 1012.0 10.0
31/05:00am 9.3 5.9 9.3 100 0.0 WNW 17 24 9 13 1012.2 1012.0 10.0
31/04:30am 9.2 6.2 9.2 100 0.0 W 15 22 8 12 1012.1 1011.9 10.0
31/04:00am 8.7 5.5 8.4 98 0.1 W 15 26 8 14 1011.9 1011.7 10.0
31/03:30am 9.6 6.5 8.8 95 0.4 W 15 28 8 15 1012.0 1011.8 8.0
31/03:00am 9.5 5.7 9.0 97 0.3 WNW 19 30 10 16 1011.9 1011.7 8.0
31/02:30am 9.7 6.2 8.9 95 0.4 WNW 17 28 9 15 1012.0 1011.8 8.0
31/02:00am 10.0 6.2 9.2 95 0.4 WNW 19 30 10 16 1012.0 1011.8 8.0
31/01:30am 10.2 6.8 9.0 92 0.6 WNW 17 26 9 14 1012.0 1011.8 8.0
31/01:00am 10.1 6.7 9.2 94 0.5 WNW 17 24 9 13 1012.0 1011.8 8.0
31/12:30am 10.0 6.7 9.4 96 0.3 WNW 17 26 9 14 1012.0 1011.8 8.0
31/12:00am 10.2 6.3 9.6 96 0.3 WNW 20 32 11 17 1011.9 1011.7 7.8
 
Date/Time
CST
Temp
°C
App
Temp
°C
Dew
Point
°C
Rel
Hum
%
Delta-T
°C
Wind Press
QNH
hPa
Press
MSL
hPa
Rain since
9am
mm
Dir  Spd
km/h
Gust
km/h
Spd
kts
Gust
kts
30/11:30pm 10.2 6.9 9.7 97 0.3 WNW 17 26 9 14 1012.0 1011.8 7.8
30/11:00pm 10.4 6.8 9.8 96 0.3 WNW 19 28 10 15 1011.8 1011.5 7.8
30/10:30pm 10.6 6.6 10.3 98 0.2 W 22 39 12 21 1011.7 1011.4 7.8
30/10:00pm 10.8 6.0 10.2 96 0.3 W 26 43 14 23 1011.4 1011.1 7.8
30/09:30pm 11.2 6.1 10.6 96 0.3 WNW 28 44 15 24 1011.0 1010.7 7.8
30/09:00pm 11.2 5.3 10.3 94 0.5 WNW 32 54 17 29 1010.7 1010.4 7.8
30/08:40pm 10.9 5.7 10.4 97 0.3 NW 28 57 15 31 1010.0 1009.8 7.6
30/08:30pm 10.7 5.5 10.1 96 0.3 NW 28 43 15 23 1009.9 1009.7 7.6
30/08:05pm 11.1 4.7 9.4 89 0.9 NW 33 52 18 28 1009.5 1009.3 7.4
30/08:00pm 11.0 4.6 9.3 89 0.9 NW 33 48 18 26 1009.5 1009.3 7.4
30/07:36pm 10.6 5.1 9.0 90 0.8 NW 28 46 15 25 1009.4 1009.1 7.4
30/07:30pm 10.5 5.0 9.1 91 0.7 NW 28 43 15 23 1009.6 1009.4 7.4
30/07:02pm 10.2 4.7 9.0 92 0.6 NW 28 48 15 26 1010.1 1009.9 7.4
30/07:00pm 10.2 4.7 9.0 92 0.6 NW 28 41 15 22 1010.2 1010.0 7.2
30/06:30pm 10.8 4.1 7.5 80 1.6 NW 32 56 17 30 1009.9 1009.7 5.4
30/06:00pm 11.9 5.4 6.4 69 2.7 NNW 30 54 16 29 1009.3 1009.0 5.0
30/05:30pm 11.3 3.9 6.8 74 2.2 NW 35 61 19 33 1008.9 1008.6 4.8
30/05:00pm 13.0 5.9 5.4 60 3.6 NNW 32 65 17 35 1008.4 1008.1 3.8
30/04:37pm 12.2 5.9 5.8 65 3.1 NNW 28 48 15 26 1008.1 1007.8 3.8
30/04:30pm 11.5 6.2 6.6 72 2.4 NNW 24 41 13 22 1008.1 1007.8 3.8
30/04:00pm 10.1 5.0 7.5 84 1.3 N 24 43 13 23 1008.4 1008.1 3.8
30/03:30pm 10.5 5.2 7.0 79 1.7 N 24 43 13 23 1008.8 1008.5 2.0
30/03:01pm 11.6 5.3 5.7 67 2.8 NNW 28 48 15 26 1009.1 1008.8 0.8
30/03:00pm 11.6 5.7 5.7 67 2.8 NNW 26 48 14 26 1009.1 1008.8 0.6
30/02:30pm 13.5 6.0 3.3 50 4.7 NNW 32 59 17 32 1008.7 1008.4 0.0
30/02:00pm 13.7 5.6 3.5 50 4.7 NNW 35 65 19 35 1009.1 1008.8 0.0
30/01:30pm 14.6 4.8 3.1 46 5.3 NW 44 80 24 43 1009.4 1009.1 0.0
30/01:23pm 14.8 4.5 2.7 44 5.5 NW 46 74 25 40 1009.4 1009.1 0.0
30/01:00pm 15.1 7.5 3.9 47 5.3 NW 33 56 18 30 1009.7 1009.5 0.0
30/12:30pm 16.3 9.4 2.7 40 6.3 NW 28 50 15 27 1010.2 1010.0 0.0
30/12:27pm 16.4 9.6 3.1 41 6.2 NW 28 50 15 27 1010.3 1010.1 0.0
30/12:00pm 16.5 11.2 2.9 40 6.3 NNW 20 43 11 23 1010.1 1009.9 0.0
30/11:46am 16.5 9.7 3.2 41 6.2 NNW 28 61 15 33 1010.6 1010.3 0.0
30/11:30am 16.3 10.4 3.7 43 5.9 NNW 24 43 13 23 1011.0 1010.7 0.0
30/11:00am 15.7 9.8 4.1 46 5.5 N 24 37 13 20 1011.6 1011.3 0.0
30/10:30am 15.1 8.3 3.3 45 5.5 N 28 57 15 31 1012.0 1011.8 0.0
30/10:23am 14.9 8.0 2.8 44 5.5 N 28 57 15 31 1012.0 1011.8 0.0
30/10:00am 15.2 9.7 4.0 47 5.3 N 22 46 12 25 1012.5 1012.3 0.0
30/09:30am 14.4 7.5 2.6 45 5.4 N 28 50 15 27 1012.8 1012.6 0.0
30/09:00am 13.8 6.9 2.7 47 5.0 N 28 57 15 31 1013.6 1013.3 0.0
30/08:33am 13.3 6.4 2.5 48 4.8 N 28 57 15 31 1014.2 1014.0 0.0
30/08:30am 13.1 6.6 2.9 50 4.6 N 26 46 14 25 1014.4 1014.2 0.0
30/08:00am 12.7 6.2 2.6 50 4.5 N 26 52 14 28 1014.7 1014.5 0.0
30/07:30am 12.6 5.6 2.2 49 4.6 N 28 50 15 27 1015.0 1014.8 0.0
30/07:26am 12.6 5.6 2.2 49 4.6 N 28 48 15 26 1015.1 1014.9 0.0
30/07:00am 12.6 6.8 2.2 49 4.6 N 22 41 12 22 1015.3 1015.1 0.0
30/06:30am 12.9 6.8 2.7 50 4.6 N 24 46 13 25 1015.5 1015.3 0.0
30/06:00am 13.3 6.4 2.8 49 4.7 NNW 28 54 15 29 1015.5 1015.3 0.0
30/05:36am 13.3 6.4 2.8 49 4.7 NNW 28 48 15 26 1015.4 1015.2 0.0
30/05:30am 13.2 6.7 2.7 49 4.7 NNW 26 43 14 23 1015.4 1015.2 0.0
30/05:00am 12.1 7.4 3.1 54 4.0 NNW 17 30 9 16 1015.8 1015.6 0.0
30/04:30am 11.5 7.5 3.0 56 3.8 N 13 22 7 12 1016.3 1016.0 0.0
30/04:00am 11.2 7.2 2.8 56 3.7 NNW 13 19 7 10 1016.7 1016.5 0.0
30/03:30am 11.2 7.1 2.5 55 3.8 NNW 13 22 7 12 1017.1 1016.9 0.0
30/03:00am 11.6 6.8 2.4 53 4.0 NNW 17 28 9 15 1017.2 1017.0 0.0
30/02:30am 11.6 6.8 2.4 53 4.0 NNW 17 28 9 15 1017.5 1017.3 0.0
30/02:00am 11.0 6.5 2.1 54 3.9 NNW 15 24 8 13 1017.7 1017.5 0.0
30/01:30am 10.1 6.1 2.7 60 3.2 N 13 28 7 15 1018.0 1017.8 0.0
30/01:00am 9.7 6.2 3.4 65 2.8 N 11 20 6 11 1018.1 1017.9 0.0
30/12:30am 9.0 5.8 3.2 67 2.5 NNE 9 13 5 7 1018.6 1018.4 0.0
30/12:00am 8.9 5.3 3.1 67 2.5 NNE 11 15 6 8 1018.8 1018.6 0.0
 
Date/Time
CST
Temp
°C
App
Temp
°C
Dew
Point
°C
Rel
Hum
%
Delta-T
°C
Wind Press
QNH
hPa
Press
MSL
hPa
Rain since
9am
mm
Dir  Spd
km/h
Gust
km/h
Spd
kts
Gust
kts
29/11:30pm 8.9 5.3 3.1 67 2.5 NE 11 17 6 9 1019.3 1019.1 0.0
29/11:00pm 9.4 5.5 3.6 67 2.6 NE 13 19 7 10 1019.5 1019.3 0.0
29/10:30pm 9.5 4.9 3.5 66 2.7 NE 17 24 9 13 1019.7 1019.5 0.0
29/10:00pm 9.6 5.4 3.6 66 2.7 NNE 15 24 8 13 1020.1 1019.9 0.0
29/09:30pm 9.6 5.8 3.8 67 2.6 NE 13 20 7 11 1020.4 1020.2 0.0
29/09:00pm 9.8 6.0 4.0 67 2.6 NE 13 20 7 11 1020.6 1020.4 0.0
29/08:30pm 9.8 5.7 4.2 68 2.5 NE 15 20 8 11 1020.8 1020.6 0.0
29/08:00pm 10.1 6.4 4.3 67 2.6 NE 13 19 7 10 1020.8 1020.6 0.0
29/07:30pm 10.5 6.8 4.2 65 2.9 NE 13 17 7 9 1020.8 1020.6 0.0
29/07:00pm 10.8 7.9 4.5 65 2.9 NNE 9 15 5 8 1020.9 1020.7 0.0
29/06:30pm 11.7 8.4 4.4 61 3.4 NNE 11 15 6 8 1020.8 1020.6 0.0

Latest Capital City Observations: Canberra | Sydney | Melbourne | Brisbane | Adelaide | Perth | Hobart | Darwin

Other formats

Comma delimited format used in spreadsheet applications
http://www.bom.gov.au/fwo/IDS60901/IDS60901.94683.axf

JavaScript Object Notation format (JSON) in row-major order
http://www.bom.gov.au/fwo/IDS60901/IDS60901.94683.json

Data quality

Most of these data are generated automatically and are frequently updated. Quality checks on data are not normally performed. It is possible for incorrect values to appear. Refer to information at About Latest Weather Observations and please check the disclaimer before using these data.